sensor_id;sensor_type;location;lat;lon;timestamp;P1;durP1;ratioP1;P2;durP2;ratioP2
11447;SDS011;43755;49.736;8.734;2022-11-20T00:02:00;19.67;;;14.88;;
11447;SDS011;43755;49.736;8.734;2022-11-20T00:04:02;21.63;;;15.57;;
11447;SDS011;43755;49.736;8.734;2022-11-20T00:06:05;19.20;;;14.32;;
11447;SDS011;43755;49.736;8.734;2022-11-20T00:08:08;20.73;;;15.48;;
11447;SDS011;43755;49.736;8.734;2022-11-20T00:10:10;20.10;;;14.65;;
11447;SDS011;43755;49.736;8.734;2022-11-20T00:12:11;19.55;;;14.98;;
11447;SDS011;43755;49.736;8.734;2022-11-20T00:14:13;19.20;;;14.95;;
11447;SDS011;43755;49.736;8.734;2022-11-20T00:16:15;19.75;;;15.07;;
11447;SDS011;43755;49.736;8.734;2022-11-20T00:18:18;20.23;;;14.93;;
11447;SDS011;43755;49.736;8.734;2022-11-20T00:20:19;21.52;;;15.02;;
11447;SDS011;43755;49.736;8.734;2022-11-20T00:22:22;20.33;;;14.73;;
11447;SDS011;43755;49.736;8.734;2022-11-20T00:24:23;17.45;;;13.90;;
11447;SDS011;43755;49.736;8.734;2022-11-20T00:26:26;16.55;;;13.32;;
11447;SDS011;43755;49.736;8.734;2022-11-20T00:28:28;21.10;;;14.85;;
11447;SDS011;43755;49.736;8.734;2022-11-20T00:30:30;17.30;;;12.98;;
11447;SDS011;43755;49.736;8.734;2022-11-20T00:32:31;13.30;;;11.07;;
11447;SDS011;43755;49.736;8.734;2022-11-20T00:34:33;11.02;;;9.13;;
11447;SDS011;43755;49.736;8.734;2022-11-20T00:36:34;8.95;;;8.05;;
11447;SDS011;43755;49.736;8.734;2022-11-20T00:38:37;8.52;;;7.55;;
11447;SDS011;43755;49.736;8.734;2022-11-20T00:40:39;10.48;;;8.00;;
11447;SDS011;43755;49.736;8.734;2022-11-20T00:42:40;9.32;;;7.47;;
11447;SDS011;43755;49.736;8.734;2022-11-20T00:44:41;8.15;;;7.07;;
11447;SDS011;43755;49.736;8.734;2022-11-20T00:46:43;7.80;;;6.78;;
11447;SDS011;43755;49.736;8.734;2022-11-20T00:48:44;7.43;;;6.63;;
11447;SDS011;43755;49.736;8.734;2022-11-20T00:50:46;6.13;;;5.57;;
11447;SDS011;43755;49.736;8.734;2022-11-20T00:52:47;6.97;;;6.28;;
11447;SDS011;43755;49.736;8.734;2022-11-20T00:54:50;6.50;;;5.80;;
11447;SDS011;43755;49.736;8.734;2022-11-20T00:56:52;6.22;;;5.63;;
11447;SDS011;43755;49.736;8.734;2022-11-20T00:58:53;6.32;;;5.70;;
11447;SDS011;43755;49.736;8.734;2022-11-20T01:00:59;6.22;;;5.63;;
11447;SDS011;43755;49.736;8.734;2022-11-20T01:03:01;6.15;;;5.55;;
11447;SDS011;43755;49.736;8.734;2022-11-20T01:05:03;6.93;;;6.05;;
11447;SDS011;43755;49.736;8.734;2022-11-20T01:07:05;6.10;;;5.50;;
11447;SDS011;43755;49.736;8.734;2022-11-20T01:09:07;5.65;;;5.15;;
11447;SDS011;43755;49.736;8.734;2022-11-20T01:11:13;5.80;;;5.20;;
11447;SDS011;43755;49.736;8.734;2022-11-20T01:13:16;5.43;;;4.95;;
11447;SDS011;43755;49.736;8.734;2022-11-20T01:15:35;6.40;;;4.90;;
11447;SDS011;43755;49.736;8.734;2022-11-20T01:17:37;6.18;;;4.78;;
11447;SDS011;43755;49.736;8.734;2022-11-20T01:19:38;8.07;;;5.30;;
11447;SDS011;43755;49.736;8.734;2022-11-20T01:21:40;5.55;;;4.90;;
11447;SDS011;43755;49.736;8.734;2022-11-20T01:23:43;4.50;;;4.15;;
11447;SDS011;43755;49.736;8.734;2022-11-20T01:25:45;5.50;;;5.00;;
11447;SDS011;43755;49.736;8.734;2022-11-20T01:27:48;5.00;;;4.60;;
11447;SDS011;43755;49.736;8.734;2022-11-20T01:29:49;4.70;;;4.30;;
11447;SDS011;43755;49.736;8.734;2022-11-20T01:31:50;4.25;;;3.88;;
11447;SDS011;43755;49.736;8.734;2022-11-20T01:33:54;3.97;;;3.67;;
11447;SDS011;43755;49.736;8.734;2022-11-20T01:36:02;4.00;;;3.70;;
11447;SDS011;43755;49.736;8.734;2022-11-20T01:38:05;3.70;;;3.40;;
11447;SDS011;43755;49.736;8.734;2022-11-20T01:40:07;3.60;;;3.30;;
11447;SDS011;43755;49.736;8.734;2022-11-20T01:42:09;3.25;;;2.95;;
11447;SDS011;43755;49.736;8.734;2022-11-20T01:44:47;3.80;;;3.50;;
11447;SDS011;43755;49.736;8.734;2022-11-20T01:46:52;3.53;;;3.22;;
11447;SDS011;43755;49.736;8.734;2022-11-20T01:48:59;3.33;;;3.03;;
11447;SDS011;43755;49.736;8.734;2022-11-20T01:51:04;4.05;;;3.40;;
11447;SDS011;43755;49.736;8.734;2022-11-20T01:53:12;3.50;;;3.15;;
11447;SDS011;43755;49.736;8.734;2022-11-20T01:55:19;3.97;;;3.60;;
11447;SDS011;43755;49.736;8.734;2022-11-20T01:57:23;3.80;;;3.47;;
11447;SDS011;43755;49.736;8.734;2022-11-20T01:59:28;3.92;;;3.60;;
11447;SDS011;43755;49.736;8.734;2022-11-20T02:01:31;3.60;;;3.30;;
11447;SDS011;43755;49.736;8.734;2022-11-20T02:03:34;3.70;;;3.40;;
11447;SDS011;43755;49.736;8.734;2022-11-20T02:05:36;3.67;;;3.38;;
11447;SDS011;43755;49.736;8.734;2022-11-20T02:07:42;3.90;;;3.60;;
11447;SDS011;43755;49.736;8.734;2022-11-20T02:09:44;3.45;;;3.15;;
11447;SDS011;43755;49.736;8.734;2022-11-20T02:11:45;3.88;;;3.58;;
11447;SDS011;43755;49.736;8.734;2022-11-20T02:13:47;4.63;;;4.32;;
11447;SDS011;43755;49.736;8.734;2022-11-20T02:15:49;5.38;;;4.88;;
11447;SDS011;43755;49.736;8.734;2022-11-20T02:17:52;5.00;;;4.60;;
11447;SDS011;43755;49.736;8.734;2022-11-20T02:19:54;4.53;;;4.13;;
11447;SDS011;43755;49.736;8.734;2022-11-20T02:21:58;4.55;;;4.15;;
11447;SDS011;43755;49.736;8.734;2022-11-20T02:24:06;5.55;;;4.22;;
11447;SDS011;43755;49.736;8.734;2022-11-20T02:26:11;4.60;;;4.20;;
11447;SDS011;43755;49.736;8.734;2022-11-20T02:28:15;4.57;;;4.18;;
11447;SDS011;43755;49.736;8.734;2022-11-20T02:30:17;5.05;;;4.60;;
11447;SDS011;43755;49.736;8.734;2022-11-20T02:32:19;5.40;;;4.90;;
11447;SDS011;43755;49.736;8.734;2022-11-20T02:34:21;5.43;;;4.93;;
11447;SDS011;43755;49.736;8.734;2022-11-20T02:36:23;5.25;;;4.75;;
11447;SDS011;43755;49.736;8.734;2022-11-20T02:38:27;5.30;;;4.80;;
11447;SDS011;43755;49.736;8.734;2022-11-20T02:40:30;5.72;;;5.25;;
11447;SDS011;43755;49.736;8.734;2022-11-20T02:42:31;6.50;;;5.65;;
11447;SDS011;43755;49.736;8.734;2022-11-20T02:44:32;6.85;;;6.00;;
11447;SDS011;43755;49.736;8.734;2022-11-20T02:46:34;6.03;;;5.43;;
11447;SDS011;43755;49.736;8.734;2022-11-20T02:48:35;7.45;;;6.43;;
11447;SDS011;43755;49.736;8.734;2022-11-20T02:50:37;7.22;;;6.05;;
11447;SDS011;43755;49.736;8.734;2022-11-20T02:52:39;8.48;;;7.25;;
11447;SDS011;43755;49.736;8.734;2022-11-20T02:54:41;8.05;;;6.32;;
11447;SDS011;43755;49.736;8.734;2022-11-20T02:56:44;8.27;;;6.45;;
11447;SDS011;43755;49.736;8.734;2022-11-20T02:58:45;8.57;;;6.28;;
11447;SDS011;43755;49.736;8.734;2022-11-20T03:00:46;23.17;;;6.80;;
11447;SDS011;43755;49.736;8.734;2022-11-20T03:02:48;16.38;;;7.20;;
11447;SDS011;43755;49.736;8.734;2022-11-20T03:04:49;8.35;;;7.15;;
11447;SDS011;43755;49.736;8.734;2022-11-20T03:06:51;11.80;;;7.75;;
11447;SDS011;43755;49.736;8.734;2022-11-20T03:08:52;18.90;;;8.40;;
11447;SDS011;43755;49.736;8.734;2022-11-20T03:10:53;10.38;;;8.20;;
11447;SDS011;43755;49.736;8.734;2022-11-20T03:12:56;18.77;;;8.85;;
11447;SDS011;43755;49.736;8.734;2022-11-20T03:14:58;12.63;;;8.45;;
11447;SDS011;43755;49.736;8.734;2022-11-20T03:16:59;13.30;;;7.90;;
11447;SDS011;43755;49.736;8.734;2022-11-20T03:19:01;25.58;;;8.77;;
11447;SDS011;43755;49.736;8.734;2022-11-20T03:21:02;15.60;;;8.18;;
11447;SDS011;43755;49.736;8.734;2022-11-20T03:23:04;25.85;;;9.07;;
11447;SDS011;43755;49.736;8.734;2022-11-20T03:25:06;23.23;;;9.25;;
11447;SDS011;43755;49.736;8.734;2022-11-20T03:27:08;14.73;;;8.57;;
11447;SDS011;43755;49.736;8.734;2022-11-20T03:29:10;49.90;;;9.60;;
11447;SDS011;43755;49.736;8.734;2022-11-20T03:31:13;40.22;;;9.43;;
11447;SDS011;43755;49.736;8.734;2022-11-20T03:33:15;70.60;;;10.10;;
11447;SDS011;43755;49.736;8.734;2022-11-20T03:35:17;23.80;;;8.48;;
11447;SDS011;43755;49.736;8.734;2022-11-20T03:37:18;17.42;;;8.50;;
11447;SDS011;43755;49.736;8.734;2022-11-20T03:39:20;61.50;;;9.85;;
11447;SDS011;43755;49.736;8.734;2022-11-20T03:41:22;62.75;;;10.13;;
11447;SDS011;43755;49.736;8.734;2022-11-20T03:43:24;59.22;;;9.30;;
11447;SDS011;43755;49.736;8.734;2022-11-20T03:45:27;43.20;;;9.43;;
11447;SDS011;43755;49.736;8.734;2022-11-20T03:47:28;42.92;;;9.18;;
11447;SDS011;43755;49.736;8.734;2022-11-20T03:49:30;29.35;;;9.32;;
11447;SDS011;43755;49.736;8.734;2022-11-20T03:51:31;33.55;;;9.35;;
11447;SDS011;43755;49.736;8.734;2022-11-20T03:53:34;44.80;;;9.63;;
11447;SDS011;43755;49.736;8.734;2022-11-20T03:55:35;36.72;;;9.07;;
11447;SDS011;43755;49.736;8.734;2022-11-20T03:57:37;76.28;;;10.93;;
11447;SDS011;43755;49.736;8.734;2022-11-20T03:59:38;31.33;;;9.30;;
11447;SDS011;43755;49.736;8.734;2022-11-20T04:01:41;30.63;;;9.05;;
11447;SDS011;43755;49.736;8.734;2022-11-20T04:03:43;22.85;;;8.73;;
11447;SDS011;43755;49.736;8.734;2022-11-20T04:05:45;8.90;;;8.00;;
11447;SDS011;43755;49.736;8.734;2022-11-20T04:07:46;37.65;;;9.90;;
11447;SDS011;43755;49.736;8.734;2022-11-20T04:09:48;17.15;;;8.57;;
11447;SDS011;43755;49.736;8.734;2022-11-20T04:11:49;32.13;;;9.77;;
11447;SDS011;43755;49.736;8.734;2022-11-20T04:13:51;9.70;;;8.43;;
11447;SDS011;43755;49.736;8.734;2022-11-20T04:15:56;25.63;;;8.80;;
11447;SDS011;43755;49.736;8.734;2022-11-20T04:17:59;81.57;;;11.35;;
11447;SDS011;43755;49.736;8.734;2022-11-20T04:20:00;41.00;;;10.02;;
11447;SDS011;43755;49.736;8.734;2022-11-20T04:22:02;22.85;;;8.52;;
11447;SDS011;43755;49.736;8.734;2022-11-20T04:24:03;35.63;;;9.00;;
11447;SDS011;43755;49.736;8.734;2022-11-20T04:26:06;17.30;;;8.73;;
11447;SDS011;43755;49.736;8.734;2022-11-20T04:28:09;89.43;;;10.40;;
11447;SDS011;43755;49.736;8.734;2022-11-20T04:30:11;79.95;;;10.00;;
11447;SDS011;43755;49.736;8.734;2022-11-20T04:32:13;17.23;;;8.10;;
11447;SDS011;43755;49.736;8.734;2022-11-20T04:34:15;289.02;;;16.95;;
11447;SDS011;43755;49.736;8.734;2022-11-20T04:36:17;46.58;;;9.38;;
11447;SDS011;43755;49.736;8.734;2022-11-20T04:38:20;44.03;;;8.38;;
11447;SDS011;43755;49.736;8.734;2022-11-20T04:40:21;137.40;;;12.00;;
11447;SDS011;43755;49.736;8.734;2022-11-20T04:42:22;255.77;;;15.57;;
11447;SDS011;43755;49.736;8.734;2022-11-20T04:44:29;79.10;;;10.50;;
11447;SDS011;43755;49.736;8.734;2022-11-20T04:46:31;15.63;;;8.82;;
11447;SDS011;43755;49.736;8.734;2022-11-20T04:48:34;19.00;;;8.23;;
11447;SDS011;43755;49.736;8.734;2022-11-20T04:50:40;30.80;;;9.05;;
11447;SDS011;43755;49.736;8.734;2022-11-20T04:52:42;269.50;;;16.35;;
11447;SDS011;43755;49.736;8.734;2022-11-20T04:54:43;48.13;;;9.40;;
11447;SDS011;43755;49.736;8.734;2022-11-20T04:56:44;9.43;;;8.52;;
11447;SDS011;43755;49.736;8.734;2022-11-20T04:58:46;306.27;;;17.85;;
11447;SDS011;43755;49.736;8.734;2022-11-20T05:00:47;14.43;;;8.43;;
11447;SDS011;43755;49.736;8.734;2022-11-20T05:02:51;10.80;;;9.13;;
11447;SDS011;43755;49.736;8.734;2022-11-20T05:04:53;8.57;;;7.78;;
11447;SDS011;43755;49.736;8.734;2022-11-20T05:06:55;16.73;;;8.98;;
11447;SDS011;43755;49.736;8.734;2022-11-20T05:08:57;28.98;;;10.77;;
11447;SDS011;43755;49.736;8.734;2022-11-20T05:11:01;70.65;;;11.25;;
11447;SDS011;43755;49.736;8.734;2022-11-20T05:13:03;43.92;;;10.60;;
11447;SDS011;43755;49.736;8.734;2022-11-20T05:15:05;58.42;;;11.40;;
11447;SDS011;43755;49.736;8.734;2022-11-20T05:17:09;42.28;;;9.63;;
11447;SDS011;43755;49.736;8.734;2022-11-20T05:19:11;14.45;;;8.95;;
11447;SDS011;43755;49.736;8.734;2022-11-20T05:21:12;31.98;;;9.88;;
11447;SDS011;43755;49.736;8.734;2022-11-20T05:23:15;40.78;;;10.23;;
11447;SDS011;43755;49.736;8.734;2022-11-20T05:25:17;28.13;;;9.88;;
11447;SDS011;43755;49.736;8.734;2022-11-20T05:27:18;26.65;;;10.52;;
11447;SDS011;43755;49.736;8.734;2022-11-20T05:29:20;21.00;;;10.45;;
11447;SDS011;43755;49.736;8.734;2022-11-20T05:31:22;69.93;;;12.70;;
11447;SDS011;43755;49.736;8.734;2022-11-20T05:33:24;81.03;;;12.57;;
11447;SDS011;43755;49.736;8.734;2022-11-20T05:35:26;103.45;;;13.93;;
11447;SDS011;43755;49.736;8.734;2022-11-20T05:37:27;16.92;;;10.52;;
11447;SDS011;43755;49.736;8.734;2022-11-20T05:39:30;33.10;;;11.68;;
11447;SDS011;43755;49.736;8.734;2022-11-20T05:41:32;15.10;;;10.85;;
11447;SDS011;43755;49.736;8.734;2022-11-20T05:43:36;19.30;;;11.02;;
11447;SDS011;43755;49.736;8.734;2022-11-20T05:45:39;17.50;;;11.30;;
11447;SDS011;43755;49.736;8.734;2022-11-20T05:47:40;15.95;;;10.82;;
11447;SDS011;43755;49.736;8.734;2022-11-20T05:49:42;31.88;;;11.43;;
11447;SDS011;43755;49.736;8.734;2022-11-20T05:51:43;13.55;;;11.02;;
11447;SDS011;43755;49.736;8.734;2022-11-20T05:53:45;13.20;;;10.50;;
11447;SDS011;43755;49.736;8.734;2022-11-20T05:55:55;18.75;;;11.27;;
11447;SDS011;43755;49.736;8.734;2022-11-20T05:57:57;13.75;;;10.18;;
11447;SDS011;43755;49.736;8.734;2022-11-20T05:59:58;14.98;;;11.32;;
11447;SDS011;43755;49.736;8.734;2022-11-20T06:02:00;15.70;;;11.85;;
11447;SDS011;43755;49.736;8.734;2022-11-20T06:04:01;16.15;;;11.65;;
11447;SDS011;43755;49.736;8.734;2022-11-20T06:06:03;16.67;;;10.63;;
11447;SDS011;43755;49.736;8.734;2022-11-20T06:08:06;13.88;;;9.98;;
11447;SDS011;43755;49.736;8.734;2022-11-20T06:10:07;17.17;;;11.25;;
11447;SDS011;43755;49.736;8.734;2022-11-20T06:12:11;15.68;;;11.40;;
11447;SDS011;43755;49.736;8.734;2022-11-20T06:14:12;15.90;;;11.18;;
11447;SDS011;43755;49.736;8.734;2022-11-20T06:16:14;15.60;;;10.98;;
11447;SDS011;43755;49.736;8.734;2022-11-20T06:18:17;20.05;;;11.48;;
11447;SDS011;43755;49.736;8.734;2022-11-20T06:20:19;27.00;;;10.88;;
11447;SDS011;43755;49.736;8.734;2022-11-20T06:22:20;12.93;;;10.38;;
11447;SDS011;43755;49.736;8.734;2022-11-20T06:24:22;18.52;;;11.02;;
11447;SDS011;43755;49.736;8.734;2022-11-20T06:26:26;35.72;;;12.20;;
11447;SDS011;43755;49.736;8.734;2022-11-20T06:28:29;14.13;;;11.23;;
11447;SDS011;43755;49.736;8.734;2022-11-20T06:30:31;14.25;;;11.30;;
11447;SDS011;43755;49.736;8.734;2022-11-20T06:32:32;11.85;;;9.77;;
11447;SDS011;43755;49.736;8.734;2022-11-20T06:34:34;31.17;;;11.52;;
11447;SDS011;43755;49.736;8.734;2022-11-20T06:36:35;18.48;;;11.23;;
11447;SDS011;43755;49.736;8.734;2022-11-20T06:38:37;19.13;;;10.52;;
11447;SDS011;43755;49.736;8.734;2022-11-20T06:40:39;15.93;;;10.30;;
11447;SDS011;43755;49.736;8.734;2022-11-20T06:42:41;14.23;;;9.88;;
11447;SDS011;43755;49.736;8.734;2022-11-20T06:44:44;13.77;;;10.10;;
11447;SDS011;43755;49.736;8.734;2022-11-20T06:46:45;12.77;;;8.95;;
11447;SDS011;43755;49.736;8.734;2022-11-20T06:48:47;12.10;;;9.15;;
11447;SDS011;43755;49.736;8.734;2022-11-20T06:50:49;12.05;;;9.20;;
11447;SDS011;43755;49.736;8.734;2022-11-20T06:52:50;12.10;;;8.02;;
11447;SDS011;43755;49.736;8.734;2022-11-20T06:54:52;9.50;;;8.05;;
11447;SDS011;43755;49.736;8.734;2022-11-20T06:56:53;9.85;;;7.72;;
11447;SDS011;43755;49.736;8.734;2022-11-20T06:58:54;10.57;;;7.75;;
11447;SDS011;43755;49.736;8.734;2022-11-20T07:00:58;12.77;;;8.38;;
11447;SDS011;43755;49.736;8.734;2022-11-20T07:03:02;12.20;;;8.48;;
11447;SDS011;43755;49.736;8.734;2022-11-20T07:05:03;14.32;;;9.27;;
11447;SDS011;43755;49.736;8.734;2022-11-20T07:07:05;12.82;;;9.38;;
11447;SDS011;43755;49.736;8.734;2022-11-20T07:09:07;11.00;;;8.68;;
11447;SDS011;43755;49.736;8.734;2022-11-20T07:11:11;11.10;;;8.23;;
11447;SDS011;43755;49.736;8.734;2022-11-20T07:13:14;11.93;;;8.68;;
11447;SDS011;43755;49.736;8.734;2022-11-20T07:15:15;12.82;;;8.18;;
11447;SDS011;43755;49.736;8.734;2022-11-20T07:17:18;11.57;;;8.48;;
11447;SDS011;43755;49.736;8.734;2022-11-20T07:19:19;10.93;;;8.10;;
11447;SDS011;43755;49.736;8.734;2022-11-20T07:21:20;10.95;;;8.75;;
11447;SDS011;43755;49.736;8.734;2022-11-20T07:23:22;12.07;;;8.55;;
11447;SDS011;43755;49.736;8.734;2022-11-20T07:25:23;12.73;;;9.27;;
11447;SDS011;43755;49.736;8.734;2022-11-20T07:27:25;10.88;;;8.45;;
11447;SDS011;43755;49.736;8.734;2022-11-20T07:29:27;13.35;;;9.13;;
11447;SDS011;43755;49.736;8.734;2022-11-20T07:31:28;15.60;;;10.00;;
11447;SDS011;43755;49.736;8.734;2022-11-20T07:33:31;19.50;;;10.85;;
11447;SDS011;43755;49.736;8.734;2022-11-20T07:35:32;15.10;;;10.18;;
11447;SDS011;43755;49.736;8.734;2022-11-20T07:37:34;16.23;;;10.50;;
11447;SDS011;43755;49.736;8.734;2022-11-20T07:39:35;14.23;;;10.00;;
11447;SDS011;43755;49.736;8.734;2022-11-20T07:41:37;18.13;;;11.68;;
11447;SDS011;43755;49.736;8.734;2022-11-20T07:43:38;19.45;;;12.07;;
11447;SDS011;43755;49.736;8.734;2022-11-20T07:45:39;18.80;;;11.65;;
11447;SDS011;43755;49.736;8.734;2022-11-20T07:47:41;22.25;;;13.15;;
11447;SDS011;43755;49.736;8.734;2022-11-20T07:49:44;28.88;;;14.35;;
11447;SDS011;43755;49.736;8.734;2022-11-20T07:51:45;31.73;;;15.02;;
11447;SDS011;43755;49.736;8.734;2022-11-20T07:53:46;28.55;;;13.57;;
11447;SDS011;43755;49.736;8.734;2022-11-20T07:55:48;69.10;;;14.85;;
11447;SDS011;43755;49.736;8.734;2022-11-20T07:57:54;107.80;;;16.40;;
11447;SDS011;43755;49.736;8.734;2022-11-20T07:59:55;80.25;;;15.27;;
11447;SDS011;43755;49.736;8.734;2022-11-20T08:01:57;108.32;;;16.77;;
11447;SDS011;43755;49.736;8.734;2022-11-20T08:03:58;52.88;;;16.60;;
11447;SDS011;43755;49.736;8.734;2022-11-20T08:06:01;86.57;;;17.92;;
11447;SDS011;43755;49.736;8.734;2022-11-20T08:08:03;58.08;;;17.25;;
11447;SDS011;43755;49.736;8.734;2022-11-20T08:10:05;45.40;;;18.45;;
11447;SDS011;43755;49.736;8.734;2022-11-20T08:12:07;32.42;;;18.00;;
11447;SDS011;43755;49.736;8.734;2022-11-20T08:14:27;35.17;;;18.00;;
11447;SDS011;43755;49.736;8.734;2022-11-20T08:16:29;30.20;;;17.85;;
11447;SDS011;43755;49.736;8.734;2022-11-20T08:18:30;36.58;;;17.67;;
11447;SDS011;43755;49.736;8.734;2022-11-20T08:20:32;143.18;;;16.90;;
11447;SDS011;43755;49.736;8.734;2022-11-20T08:22:35;132.52;;;16.60;;
11447;SDS011;43755;49.736;8.734;2022-11-20T08:24:36;35.50;;;13.90;;
11447;SDS011;43755;49.736;8.734;2022-11-20T08:26:38;143.52;;;15.90;;
11447;SDS011;43755;49.736;8.734;2022-11-20T08:28:40;26.67;;;13.18;;
11447;SDS011;43755;49.736;8.734;2022-11-20T08:30:42;16.90;;;12.95;;
11447;SDS011;43755;49.736;8.734;2022-11-20T08:32:43;111.72;;;15.40;;
11447;SDS011;43755;49.736;8.734;2022-11-20T08:34:44;28.30;;;12.75;;
11447;SDS011;43755;49.736;8.734;2022-11-20T08:36:46;168.65;;;13.90;;
11447;SDS011;43755;49.736;8.734;2022-11-20T08:38:49;79.78;;;12.68;;
11447;SDS011;43755;49.736;8.734;2022-11-20T08:40:51;30.10;;;11.75;;
11447;SDS011;43755;49.736;8.734;2022-11-20T08:43:06;81.22;;;12.40;;
11447;SDS011;43755;49.736;8.734;2022-11-20T08:45:08;173.13;;;15.30;;
11447;SDS011;43755;49.736;8.734;2022-11-20T08:47:10;188.85;;;14.23;;
11447;SDS011;43755;49.736;8.734;2022-11-20T08:49:13;84.13;;;12.90;;
11447;SDS011;43755;49.736;8.734;2022-11-20T08:51:15;50.80;;;12.07;;
11447;SDS011;43755;49.736;8.734;2022-11-20T08:53:17;14.27;;;11.30;;
11447;SDS011;43755;49.736;8.734;2022-11-20T08:55:20;59.80;;;12.75;;
11447;SDS011;43755;49.736;8.734;2022-11-20T08:57:21;31.45;;;11.60;;
11447;SDS011;43755;49.736;8.734;2022-11-20T08:59:23;12.90;;;11.00;;
11447;SDS011;43755;49.736;8.734;2022-11-20T09:01:25;15.00;;;11.50;;
11447;SDS011;43755;49.736;8.734;2022-11-20T09:03:26;55.60;;;13.48;;
11447;SDS011;43755;49.736;8.734;2022-11-20T09:05:27;14.10;;;11.93;;
11447;SDS011;43755;49.736;8.734;2022-11-20T09:07:29;15.02;;;11.18;;
11447;SDS011;43755;49.736;8.734;2022-11-20T09:09:31;14.75;;;12.40;;
11447;SDS011;43755;49.736;8.734;2022-11-20T09:11:34;46.97;;;12.13;;
11447;SDS011;43755;49.736;8.734;2022-11-20T09:13:36;30.50;;;12.65;;
11447;SDS011;43755;49.736;8.734;2022-11-20T09:15:37;20.42;;;12.32;;
11447;SDS011;43755;49.736;8.734;2022-11-20T09:17:38;16.63;;;11.70;;
11447;SDS011;43755;49.736;8.734;2022-11-20T09:19:40;24.52;;;13.88;;
11447;SDS011;43755;49.736;8.734;2022-11-20T09:21:41;17.17;;;13.93;;
11447;SDS011;43755;49.736;8.734;2022-11-20T09:23:43;80.45;;;18.10;;
11447;SDS011;43755;49.736;8.734;2022-11-20T09:25:45;74.65;;;17.88;;
11447;SDS011;43755;49.736;8.734;2022-11-20T09:27:48;20.88;;;14.75;;
11447;SDS011;43755;49.736;8.734;2022-11-20T09:29:55;84.07;;;17.85;;
11447;SDS011;43755;49.736;8.734;2022-11-20T09:31:56;136.38;;;19.70;;
11447;SDS011;43755;49.736;8.734;2022-11-20T09:33:58;110.28;;;18.55;;
11447;SDS011;43755;49.736;8.734;2022-11-20T09:35:59;108.50;;;18.52;;
11447;SDS011;43755;49.736;8.734;2022-11-20T09:38:04;28.10;;;16.30;;
11447;SDS011;43755;49.736;8.734;2022-11-20T09:40:09;32.22;;;17.10;;
11447;SDS011;43755;49.736;8.734;2022-11-20T09:42:24;34.05;;;17.27;;
11447;SDS011;43755;49.736;8.734;2022-11-20T09:44:39;31.15;;;16.33;;
11447;SDS011;43755;49.736;8.734;2022-11-20T09:46:51;36.80;;;15.85;;
11447;SDS011;43755;49.736;8.734;2022-11-20T09:49:00;28.02;;;17.45;;
11447;SDS011;43755;49.736;8.734;2022-11-20T09:51:20;24.75;;;16.33;;
11447;SDS011;43755;49.736;8.734;2022-11-20T09:53:33;23.45;;;15.32;;
11447;SDS011;43755;49.736;8.734;2022-11-20T09:55:44;24.25;;;15.80;;
11447;SDS011;43755;49.736;8.734;2022-11-20T09:57:47;24.55;;;15.30;;
11447;SDS011;43755;49.736;8.734;2022-11-20T09:59:53;22.52;;;15.07;;
11447;SDS011;43755;49.736;8.734;2022-11-20T10:02:00;21.90;;;14.60;;
11447;SDS011;43755;49.736;8.734;2022-11-20T10:04:03;17.58;;;12.75;;
11447;SDS011;43755;49.736;8.734;2022-11-20T10:06:08;16.35;;;12.05;;
11447;SDS011;43755;49.736;8.734;2022-11-20T10:08:15;14.77;;;11.68;;
11447;SDS011;43755;49.736;8.734;2022-11-20T10:10:22;14.10;;;10.65;;
11447;SDS011;43755;49.736;8.734;2022-11-20T10:12:33;11.32;;;9.95;;
11447;SDS011;43755;49.736;8.734;2022-11-20T10:14:52;11.57;;;9.70;;
11447;SDS011;43755;49.736;8.734;2022-11-20T10:17:03;11.50;;;10.13;;
11447;SDS011;43755;49.736;8.734;2022-11-20T10:19:18;10.35;;;8.95;;
11447;SDS011;43755;49.736;8.734;2022-11-20T10:21:34;10.48;;;9.10;;
11447;SDS011;43755;49.736;8.734;2022-11-20T10:23:59;10.30;;;8.75;;
11447;SDS011;43755;49.736;8.734;2022-11-20T10:26:29;10.63;;;8.73;;
11447;SDS011;43755;49.736;8.734;2022-11-20T10:28:41;9.82;;;8.82;;
11447;SDS011;43755;49.736;8.734;2022-11-20T10:30:52;19.40;;;12.57;;
11447;SDS011;43755;49.736;8.734;2022-11-20T10:33:03;21.40;;;14.55;;
11447;SDS011;43755;49.736;8.734;2022-11-20T10:35:10;19.42;;;14.40;;
11447;SDS011;43755;49.736;8.734;2022-11-20T10:37:21;22.23;;;14.77;;
11447;SDS011;43755;49.736;8.734;2022-11-20T10:39:26;19.27;;;14.18;;
11447;SDS011;43755;49.736;8.734;2022-11-20T10:41:37;18.35;;;13.88;;
11447;SDS011;43755;49.736;8.734;2022-11-20T10:43:41;18.08;;;14.00;;
11447;SDS011;43755;49.736;8.734;2022-11-20T10:45:45;18.52;;;14.40;;
11447;SDS011;43755;49.736;8.734;2022-11-20T10:47:52;19.83;;;14.68;;
11447;SDS011;43755;49.736;8.734;2022-11-20T10:49:57;19.92;;;14.43;;
11447;SDS011;43755;49.736;8.734;2022-11-20T10:52:05;17.30;;;13.23;;
11447;SDS011;43755;49.736;8.734;2022-11-20T10:54:17;15.43;;;11.88;;
11447;SDS011;43755;49.736;8.734;2022-11-20T10:56:24;16.63;;;13.13;;
11447;SDS011;43755;49.736;8.734;2022-11-20T10:58:34;13.75;;;11.02;;
11447;SDS011;43755;49.736;8.734;2022-11-20T11:00:43;16.77;;;12.50;;
11447;SDS011;43755;49.736;8.734;2022-11-20T11:02:46;16.70;;;12.52;;
11447;SDS011;43755;49.736;8.734;2022-11-20T11:04:50;10.20;;;8.80;;
11447;SDS011;43755;49.736;8.734;2022-11-20T11:06:54;10.75;;;9.20;;
11447;SDS011;43755;49.736;8.734;2022-11-20T11:09:04;10.23;;;8.70;;
11447;SDS011;43755;49.736;8.734;2022-11-20T11:11:18;11.77;;;10.18;;
11447;SDS011;43755;49.736;8.734;2022-11-20T11:13:23;10.88;;;9.40;;
11447;SDS011;43755;49.736;8.734;2022-11-20T11:15:28;17.27;;;12.52;;
11447;SDS011;43755;49.736;8.734;2022-11-20T11:17:31;15.45;;;12.25;;
11447;SDS011;43755;49.736;8.734;2022-11-20T11:19:34;16.23;;;13.32;;
11447;SDS011;43755;49.736;8.734;2022-11-20T11:21:36;16.30;;;13.00;;
11447;SDS011;43755;49.736;8.734;2022-11-20T11:23:43;17.77;;;13.30;;
11447;SDS011;43755;49.736;8.734;2022-11-20T11:25:55;17.50;;;13.30;;
11447;SDS011;43755;49.736;8.734;2022-11-20T11:27:59;17.48;;;13.18;;
11447;SDS011;43755;49.736;8.734;2022-11-20T11:30:10;16.33;;;12.32;;
11447;SDS011;43755;49.736;8.734;2022-11-20T11:32:15;17.30;;;13.60;;
11447;SDS011;43755;49.736;8.734;2022-11-20T11:34:20;16.25;;;12.43;;
11447;SDS011;43755;49.736;8.734;2022-11-20T11:36:22;15.73;;;12.00;;
11447;SDS011;43755;49.736;8.734;2022-11-20T11:38:30;17.02;;;13.88;;
11447;SDS011;43755;49.736;8.734;2022-11-20T11:40:36;13.98;;;11.63;;
11447;SDS011;43755;49.736;8.734;2022-11-20T11:42:41;14.55;;;11.40;;
11447;SDS011;43755;49.736;8.734;2022-11-20T11:44:44;14.80;;;11.73;;
11447;SDS011;43755;49.736;8.734;2022-11-20T11:47:05;15.45;;;12.50;;
11447;SDS011;43755;49.736;8.734;2022-11-20T11:49:13;15.93;;;12.23;;
11447;SDS011;43755;49.736;8.734;2022-11-20T11:51:19;14.82;;;12.18;;
11447;SDS011;43755;49.736;8.734;2022-11-20T11:53:21;16.13;;;12.25;;
11447;SDS011;43755;49.736;8.734;2022-11-20T11:55:30;16.15;;;12.68;;
11447;SDS011;43755;49.736;8.734;2022-11-20T11:57:37;13.55;;;11.77;;
11447;SDS011;43755;49.736;8.734;2022-11-20T11:59:47;13.43;;;11.60;;
11447;SDS011;43755;49.736;8.734;2022-11-20T12:01:59;14.88;;;11.88;;
11447;SDS011;43755;49.736;8.734;2022-11-20T12:04:05;14.57;;;11.70;;
11447;SDS011;43755;49.736;8.734;2022-11-20T12:06:17;14.30;;;11.23;;
11447;SDS011;43755;49.736;8.734;2022-11-20T12:08:20;14.80;;;11.65;;
11447;SDS011;43755;49.736;8.734;2022-11-20T12:10:33;15.25;;;11.60;;